Time;durP1;ratioP1;P1;durP2;ratioP2;P2;SDS_P1;SDS_P2;PMS_P1;PMS_P2;Temp;Humidity;BMP_temperature;BMP_pressure;BME280_temperature;BME280_humidity;BME280_pressure;Samples;Min_cycle;Max_cycle;Signal;HPM_P1;HPM_P2
2023/01/13 00:01:18;;;;;;;0.30;0.30;;;;;;;;;;5092571;28;20044;-87
2023/01/13 00:03:46;;;;;;;0.43;0.30;;;;;;;;;;5092557;28;20059;-87
2023/01/13 00:06:17;;;;;;;0.52;0.20;;;;;;;;;;5092723;28;20043;-87
2023/01/13 00:08:47;;;;;;;1.67;0.52;;;;;;;;;;5092417;28;20059;-89
2023/01/13 00:11:15;;;;;;;0.88;0.40;;;;;;;;;;5092486;28;20044;-88
2023/01/13 00:13:43;;;;;;;2.38;0.30;;;;;;;;;;5092429;28;20055;-87
2023/01/13 00:16:11;;;;;;;0.82;0.40;;;;;;;;;;5092308;28;20059;-88
2023/01/13 00:18:39;;;;;;;0.40;0.40;;;;;;;;;;5092523;28;20090;-87
2023/01/13 00:21:17;;;;;;;2.63;0.50;;;;;;;;;;5092347;28;20048;-88
2023/01/13 00:23:45;;;;;;;0.82;0.35;;;;;;;;;;5092245;28;20070;-87
2023/01/13 00:26:17;;;;;;;0.70;0.25;;;;;;;;;;5092167;28;20070;-87
2023/01/13 00:28:45;;;;;;;1.92;0.30;;;;;;;;;;5092195;28;20526;-87
2023/01/13 00:31:19;;;;;;;0.60;0.38;;;;;;;;;;5092392;28;20114;-87
2023/01/13 00:33:50;;;;;;;2.60;0.90;;;;;;;;;;5091425;28;20504;-87
2023/01/13 00:36:19;;;;;;;1.05;0.40;;;;;;;;;;5092174;28;20051;-87
2023/01/13 00:38:46;;;;;;;0.60;0.22;;;;;;;;;;5091855;28;20052;-87
2023/01/13 00:41:15;;;;;;;1.17;0.20;;;;;;;;;;5092258;28;20051;-87
2023/01/13 00:43:43;;;;;;;0.60;0.25;;;;;;;;;;5091669;28;20044;-87
2023/01/13 00:46:11;;;;;;;0.35;0.30;;;;;;;;;;5092158;28;20044;-89
2023/01/13 00:48:39;;;;;;;0.82;0.30;;;;;;;;;;5092079;28;20040;-89
2023/01/13 00:51:08;;;;;;;0.20;0.20;;;;;;;;;;5091902;28;20492;-87
2023/01/13 00:53:37;;;;;;;1.00;0.32;;;;;;;;;;5091930;28;20056;-87
2023/01/13 00:56:06;;;;;;;0.70;0.40;;;;;;;;;;5092193;28;20134;-87
2023/01/13 00:58:34;;;;;;;1.63;0.30;;;;;;;;;;5092085;28;20048;-89
2023/01/13 01:01:03;;;;;;;0.20;0.20;;;;;;;;;;5092045;28;20078;-87
2023/01/13 01:03:30;;;;;;;0.30;0.20;;;;;;;;;;5091852;28;20048;-87
2023/01/13 01:06:07;;;;;;;0.57;0.20;;;;;;;;;;5092044;28;20052;-88
2023/01/13 01:08:35;;;;;;;0.30;0.30;;;;;;;;;;5092186;28;20048;-88
2023/01/13 01:11:19;;;;;;;0.63;0.17;;;;;;;;;;5092116;28;20044;-87
2023/01/13 01:13:47;;;;;;;0.57;0.10;;;;;;;;;;5093840;28;20075;-88
2023/01/13 01:16:21;;;;;;;0.57;0.15;;;;;;;;;;5092663;28;20440;-87
2023/01/13 01:18:49;;;;;;;0.25;0.10;;;;;;;;;;5092075;28;20047;-87
2023/01/13 01:21:20;;;;;;;0.95;0.30;;;;;;;;;;5093291;28;20052;-86
2023/01/13 01:23:47;;;;;;;0.40;0.22;;;;;;;;;;5095426;28;20101;-86
2023/01/13 01:26:17;;;;;;;0.40;0.22;;;;;;;;;;5095657;28;20044;-91
2023/01/13 01:28:45;;;;;;;0.40;0.20;;;;;;;;;;5095574;28;20546;-87
2023/01/13 01:31:17;;;;;;;0.20;0.20;;;;;;;;;;5095294;28;20051;-86
2023/01/13 01:33:48;;;;;;;0.10;0.10;;;;;;;;;;5095388;28;20044;-88
2023/01/13 01:36:16;;;;;;;0.90;0.28;;;;;;;;;;5095037;28;20074;-88
2023/01/13 01:38:44;;;;;;;0.55;0.20;;;;;;;;;;5095246;28;20047;-87
2023/01/13 01:41:13;;;;;;;0.20;0.20;;;;;;;;;;5095214;28;20493;-87
2023/01/13 01:44:01;;;;;;;0.68;0.30;;;;;;;;;;5095028;28;20553;-88
2023/01/13 01:46:38;;;;;;;0.20;0.20;;;;;;;;;;5094947;28;20097;-87
2023/01/13 01:49:06;;;;;;;0.28;0.28;;;;;;;;;;5095170;28;20563;-87
2023/01/13 01:51:36;;;;;;;0.43;0.20;;;;;;;;;;5094895;28;20553;-88
2023/01/13 01:54:07;;;;;;;1.08;0.30;;;;;;;;;;5095102;28;20064;-87
2023/01/13 01:56:36;;;;;;;0.10;0.10;;;;;;;;;;5094905;28;20060;-87
2023/01/13 01:59:04;;;;;;;0.10;0.10;;;;;;;;;;5094926;28;20052;-87
2023/01/13 02:01:32;;;;;;;0.65;0.20;;;;;;;;;;5094908;28;20052;-88
2023/01/13 02:04:12;;;;;;;0.30;0.20;;;;;;;;;;5094196;28;20051;-88
2023/01/13 02:06:40;;;;;;;0.10;0.10;;;;;;;;;;5094523;28;20063;-87
2023/01/13 02:09:08;;;;;;;0.75;0.30;;;;;;;;;;5094635;28;20396;-88
2023/01/13 02:14:23;;;;;;;0.43;0.20;;;;;;;;;;5095264;28;20097;-86
2023/01/13 02:17:09;;;;;;;0.28;0.28;;;;;;;;;;5094331;28;20101;-87
2023/01/13 02:19:36;;;;;;;0.77;0.30;;;;;;;;;;5094481;28;20071;-88
2023/01/13 02:22:03;;;;;;;0.60;0.25;;;;;;;;;;5094186;28;20048;-87
2023/01/13 02:25:03;;;;;;;0.60;0.28;;;;;;;;;;5094401;28;20052;-86
2023/01/13 02:27:39;;;;;;;0.95;0.45;;;;;;;;;;5061574;28;20052;-85
2023/01/13 02:33:03;;;;;;;0.30;0.30;;;;;;;;;;5094253;28;20052;-88
2023/01/13 02:35:49;;;;;;;0.40;0.20;;;;;;;;;;5093276;28;20052;-85
2023/01/13 02:38:20;;;;;;;0.57;0.20;;;;;;;;;;5094000;28;20052;-85
2023/01/13 02:44:05;;;;;;;0.20;0.20;;;;;;;;;;5093903;28;20546;-87
2023/01/13 02:44:06;;;;;;;0.57;0.10;;;;;;;;;;5094681;28;20082;-86
2023/01/13 02:46:48;;;;;;;0.08;0.08;;;;;;;;;;5093941;28;20048;-87
2023/01/13 02:49:21;;;;;;;0.95;0.20;;;;;;;;;;5094078;28;20048;-87
2023/01/13 02:51:49;;;;;;;;;;;;;;;;;;5094431;28;20052;-87
2023/01/13 02:54:19;;;;;;;0.20;0.20;;;;;;;;;;5093521;28;19923;-88
2023/01/13 02:56:48;;;;;;;0.15;0.13;;;;;;;;;;5093837;28;20048;-88
2023/01/13 02:59:16;;;;;;;0.98;0.20;;;;;;;;;;5093900;28;20067;-88
2023/01/13 03:01:43;;;;;;;0.82;0.20;;;;;;;;;;5093839;28;20543;-88
2023/01/13 03:04:15;;;;;;;0.95;0.30;;;;;;;;;;5093419;28;20055;-85
2023/01/13 03:07:01;;;;;;;0.75;0.20;;;;;;;;;;5093524;28;20055;-88
2023/01/13 03:09:32;;;;;;;1.52;0.30;;;;;;;;;;5093669;28;20491;-87
2023/01/13 03:12:07;;;;;;;0.30;0.20;;;;;;;;;;5093612;28;20128;-86
2023/01/13 03:14:41;;;;;;;0.20;0.20;;;;;;;;;;5093583;28;20127;-86
2023/01/13 03:17:16;;;;;;;0.32;0.20;;;;;;;;;;5093113;28;20074;-86
2023/01/13 03:19:43;;;;;;;0.30;0.30;;;;;;;;;;5093627;28;20048;-86
2023/01/13 03:22:15;;;;;;;4.90;0.43;;;;;;;;;;5093411;28;20488;-86
2023/01/13 03:24:44;;;;;;;2.30;0.60;;;;;;;;;;5093209;28;20050;-86
2023/01/13 03:27:15;;;;;;;2.17;0.13;;;;;;;;;;5094128;28;20045;-85
2023/01/13 03:29:45;;;;;;;8.52;0.90;;;;;;;;;;5093187;28;20500;-85
2023/01/13 03:32:19;;;;;;;0.28;0.28;;;;;;;;;;5093347;28;20070;-86
2023/01/13 03:34:48;;;;;;;0.10;0.10;;;;;;;;;;5093273;28;20052;-86
2023/01/13 03:37:18;;;;;;;1.48;0.28;;;;;;;;;;5093227;28;20058;-86
2023/01/13 03:39:48;;;;;;;1.77;0.40;;;;;;;;;;5092964;28;20048;-88
2023/01/13 03:42:22;;;;;;;0.45;0.30;;;;;;;;;;5094035;28;20044;-88
2023/01/13 03:45:08;;;;;;;7.05;0.70;;;;;;;;;;5092546;28;20060;-89
2023/01/13 03:47:40;;;;;;;1.55;0.25;;;;;;;;;;5093759;28;20079;-88
2023/01/13 03:50:17;;;;;;;0.45;0.20;;;;;;;;;;5092793;28;20521;-88
2023/01/13 03:52:47;;;;;;;1.55;0.30;;;;;;;;;;5093054;28;20404;-88
2023/01/13 03:55:17;;;;;;;1.65;0.20;;;;;;;;;;5093839;28;20044;-88
2023/01/13 03:57:54;;;;;;;1.17;0.25;;;;;;;;;;5092659;28;20052;-89
2023/01/13 04:00:27;;;;;;;0.30;0.30;;;;;;;;;;5092812;28;20052;-86
2023/01/13 04:02:57;;;;;;;0.30;0.17;;;;;;;;;;5092544;28;20048;-86
2023/01/13 04:05:24;;;;;;;1.73;0.45;;;;;;;;;;5092553;28;20130;-86
2023/01/13 04:07:55;;;;;;;6.93;1.13;;;;;;;;;;5092916;28;20056;-86
2023/01/13 04:10:25;;;;;;;0.73;0.32;;;;;;;;;;5092415;28;20044;-86
2023/01/13 04:13:01;;;;;;;0.13;0.13;;;;;;;;;;5092815;28;20052;-86
2023/01/13 04:15:31;;;;;;;1.45;0.30;;;;;;;;;;5092496;28;20083;-86
2023/01/13 04:18:03;;;;;;;0.80;0.43;;;;;;;;;;5092892;28;20043;-86
2023/01/13 04:20:30;;;;;;;1.70;0.10;;;;;;;;;;5092510;28;20440;-86
2023/01/13 04:22:57;;;;;;;0.45;0.20;;;;;;;;;;5092678;28;20047;-86
2023/01/13 04:25:26;;;;;;;1.00;0.30;;;;;;;;;;5091295;28;20585;-86
2023/01/13 04:27:53;;;;;;;0.08;0.08;;;;;;;;;;5093076;28;20131;-86
2023/01/13 04:30:20;;;;;;;1.70;0.30;;;;;;;;;;5093662;28;20048;-85
2023/01/13 04:32:48;;;;;;;1.33;0.20;;;;;;;;;;5092727;28;20052;-86
2023/01/13 04:35:15;;;;;;;1.08;0.40;;;;;;;;;;5092888;28;20044;-86
2023/01/13 04:37:42;;;;;;;3.30;0.55;;;;;;;;;;5092352;28;20134;-86
2023/01/13 04:40:09;;;;;;;0.35;0.35;;;;;;;;;;5092503;28;20040;-85
2023/01/13 04:42:37;;;;;;;0.50;0.30;;;;;;;;;;5093716;28;20088;-86
2023/01/13 04:45:04;;;;;;;0.25;0.25;;;;;;;;;;5092500;28;20044;-88
2023/01/13 04:47:31;;;;;;;0.20;0.20;;;;;;;;;;5092079;28;20087;-87
2023/01/13 04:49:59;;;;;;;1.13;0.57;;;;;;;;;;5093240;28;20048;-88
2023/01/13 04:52:26;;;;;;;0.20;0.20;;;;;;;;;;5092354;28;20488;-88
2023/01/13 04:54:53;;;;;;;2.15;0.38;;;;;;;;;;5092309;28;20044;-88
2023/01/13 04:57:20;;;;;;;1.10;0.50;;;;;;;;;;5095112;28;20048;-88
2023/01/13 04:59:47;;;;;;;4.43;0.50;;;;;;;;;;5097176;28;20051;-88
2023/01/13 05:02:18;;;;;;;1.13;0.63;;;;;;;;;;5096109;28;20473;-86
2023/01/13 05:04:46;;;;;;;0.50;0.45;;;;;;;;;;5095707;28;20138;-87
2023/01/13 05:07:14;;;;;;;0.43;0.43;;;;;;;;;;5096214;28;20071;-87
2023/01/13 05:09:41;;;;;;;0.20;0.20;;;;;;;;;;5096052;28;20147;-88
2023/01/13 05:17:41;;;;;;;0.68;0.10;;;;;;;;;;5096630;28;20073;-85
2023/01/13 05:20:09;;;;;;;0.50;0.10;;;;;;;;;;5095959;28;20062;-86
2023/01/13 05:25:24;;;;;;;0.30;0.30;;;;;;;;;;5095734;28;20050;-85
2023/01/13 05:27:53;;;;;;;0.20;0.13;;;;;;;;;;5095516;28;20074;-89
2023/01/13 05:30:21;;;;;;;0.63;0.15;;;;;;;;;;5095657;28;20048;-88
2023/01/13 05:32:48;;;;;;;2.03;0.10;;;;;;;;;;5103895;28;20059;-88
2023/01/13 05:35:15;;;;;;;0.45;0.10;;;;;;;;;;5096653;28;20598;-89
2023/01/13 05:37:43;;;;;;;0.30;0.05;;;;;;;;;;5095452;28;20136;-87
2023/01/13 05:43:20;;;;;;;1.08;0.20;;;;;;;;;;5096250;28;20592;-87
2023/01/13 05:45:49;;;;;;;0.35;0.20;;;;;;;;;;5096150;28;20051;-88
2023/01/13 05:48:18;;;;;;;0.20;0.20;;;;;;;;;;5095334;28;20404;-87
2023/01/13 05:50:45;;;;;;;0.20;0.20;;;;;;;;;;5094988;28;20139;-88
2023/01/13 05:53:13;;;;;;;0.20;0.20;;;;;;;;;;5095121;28;20101;-87
2023/01/13 05:55:40;;;;;;;0.55;0.10;;;;;;;;;;5095039;28;20135;-87
2023/01/13 05:58:09;;;;;;;0.25;0.20;;;;;;;;;;5095034;28;20056;-87
2023/01/13 06:00:36;;;;;;;0.15;0.10;;;;;;;;;;5095023;28;20048;-87
2023/01/13 06:03:04;;;;;;;0.13;0.13;;;;;;;;;;5094702;28;20054;-87
2023/01/13 06:05:31;;;;;;;0.13;0.13;;;;;;;;;;5095038;28;20052;-88
2023/01/13 06:07:59;;;;;;;0.10;0.10;;;;;;;;;;5094333;28;20155;-87
2023/01/13 06:10:27;;;;;;;2.30;0.75;;;;;;;;;;5094695;28;20055;-87
2023/01/13 06:12:54;;;;;;;0.38;0.20;;;;;;;;;;5094624;28;20059;-87
2023/01/13 06:15:22;;;;;;;0.00;0.00;;;;;;;;;;5094314;28;20048;-87
2023/01/13 06:17:49;;;;;;;1.48;0.15;;;;;;;;;;5094595;28;20047;-87
2023/01/13 06:20:17;;;;;;;1.95;0.13;;;;;;;;;;5094576;28;20048;-88
2023/01/13 06:22:48;;;;;;;1.30;0.20;;;;;;;;;;5094468;28;20056;-88
2023/01/13 06:25:25;;;;;;;0.30;0.30;;;;;;;;;;5094299;28;20105;-87
2023/01/13 06:27:53;;;;;;;0.30;0.30;;;;;;;;;;5094452;28;20097;-86
2023/01/13 06:30:21;;;;;;;0.85;0.30;;;;;;;;;;5094422;28;20051;-86
2023/01/13 06:32:51;;;;;;;0.35;0.35;;;;;;;;;;5094378;28;20048;-86
2023/01/13 06:35:20;;;;;;;0.30;0.20;;;;;;;;;;5093662;28;20122;-86
2023/01/13 06:37:49;;;;;;;0.22;0.20;;;;;;;;;;5093836;28;20051;-87
2023/01/13 06:40:17;;;;;;;0.10;0.10;;;;;;;;;;5094303;28;20051;-87
2023/01/13 06:45:30;;;;;;;0.30;0.20;;;;;;;;;;5094746;28;20426;-88
2023/01/13 06:47:58;;;;;;;0.30;0.10;;;;;;;;;;5094772;28;20497;-88
2023/01/13 06:50:27;;;;;;;0.10;0.10;;;;;;;;;;5093919;28;20056;-87
2023/01/13 06:52:54;;;;;;;0.15;0.10;;;;;;;;;;5095021;28;20102;-87
2023/01/13 06:55:21;;;;;;;0.10;0.10;;;;;;;;;;5093750;28;20507;-88
2023/01/13 06:57:53;;;;;;;1.45;0.20;;;;;;;;;;5093954;28;20066;-87
2023/01/13 07:00:20;;;;;;;3.85;0.43;;;;;;;;;;5093627;28;20415;-88
2023/01/13 07:02:47;;;;;;;0.20;0.20;;;;;;;;;;5093727;28;20067;-88
2023/01/13 07:05:15;;;;;;;0.20;0.10;;;;;;;;;;5093416;28;20507;-86
2023/01/13 07:07:43;;;;;;;0.00;0.00;;;;;;;;;;5093645;28;20048;-87
2023/01/13 07:10:12;;;;;;;0.10;0.00;;;;;;;;;;5093516;28;20055;-88
2023/01/13 07:15:26;;;;;;;0.15;0.10;;;;;;;;;;5094434;28;20048;-88
2023/01/13 07:17:58;;;;;;;0.52;0.22;;;;;;;;;;5093379;28;20052;-88
2023/01/13 07:20:26;;;;;;;0.20;0.15;;;;;;;;;;5093039;28;20059;-88
2023/01/13 07:22:53;;;;;;;1.55;0.10;;;;;;;;;;5093477;28;20058;-87
2023/01/13 07:25:21;;;;;;;0.50;0.50;;;;;;;;;;5093026;28;20055;-87
2023/01/13 07:27:48;;;;;;;0.30;0.30;;;;;;;;;;5093270;28;20131;-87
2023/01/13 07:30:16;;;;;;;1.38;0.20;;;;;;;;;;5093296;28;20135;-86
2023/01/13 07:32:43;;;;;;;0.22;0.10;;;;;;;;;;5093183;28;20098;-85
2023/01/13 07:35:10;;;;;;;0.50;0.50;;;;;;;;;;5093191;28;20051;-88
2023/01/13 07:37:38;;;;;;;1.00;1.00;;;;;;;;;;5092461;28;20546;-85
2023/01/13 07:40:06;;;;;;;1.17;1.08;;;;;;;;;;5093105;28;20537;-85
2023/01/13 07:45:19;;;;;;;1.13;1.02;;;;;;;;;;5093981;28;20044;-86
2023/01/13 07:47:46;;;;;;;1.60;1.30;;;;;;;;;;5092561;28;20050;-86
2023/01/13 07:50:13;;;;;;;1.83;0.70;;;;;;;;;;5092504;28;20044;-88
2023/01/13 07:52:40;;;;;;;0.68;0.68;;;;;;;;;;5093238;28;20047;-87
2023/01/13 07:55:09;;;;;;;1.48;1.38;;;;;;;;;;5093136;28;20048;-87
2023/01/13 07:57:37;;;;;;;5.07;1.95;;;;;;;;;;5092900;28;20446;-88
2023/01/13 08:00:04;;;;;;;5.05;4.55;;;;;;;;;;5092909;28;20480;-87
2023/01/13 08:02:31;;;;;;;2.40;1.88;;;;;;;;;;5092476;28;20047;-86
2023/01/13 08:04:59;;;;;;;0.57;0.30;;;;;;;;;;5093207;28;20048;-87
2023/01/13 08:07:26;;;;;;;0.10;0.10;;;;;;;;;;5093429;28;20051;-87
2023/01/13 08:09:53;;;;;;;1.17;1.17;;;;;;;;;;5093333;28;20056;-87
2023/01/13 08:15:19;;;;;;;0.70;0.20;;;;;;;;;;5095335;28;20056;-86
2023/01/13 08:17:46;;;;;;;1.27;0.50;;;;;;;;;;5092605;28;20068;-86
2023/01/13 08:20:13;;;;;;;2.25;0.20;;;;;;;;;;5093284;28;20052;-86
2023/01/13 08:22:40;;;;;;;0.52;0.00;;;;;;;;;;5093570;28;20134;-87
2023/01/13 08:25:08;;;;;;;0.10;0.10;;;;;;;;;;5093387;28;20058;-86
2023/01/13 08:27:35;;;;;;;3.40;0.10;;;;;;;;;;5093276;28;20044;-87
2023/01/13 08:30:02;;;;;;;0.03;0.00;;;;;;;;;;5093653;28;20070;-86
2023/01/13 08:32:29;;;;;;;0.00;0.00;;;;;;;;;;5096565;28;20482;-87
2023/01/13 08:34:57;;;;;;;0.30;0.10;;;;;;;;;;5096365;28;20051;-85
2023/01/13 08:37:24;;;;;;;0.10;0.10;;;;;;;;;;5095960;28;20488;-87
2023/01/13 08:39:51;;;;;;;1.23;0.20;;;;;;;;;;5095936;28;20139;-87
2023/01/13 08:42:18;;;;;;;0.30;0.30;;;;;;;;;;5096311;28;20044;-87
2023/01/13 08:44:45;;;;;;;0.28;0.28;;;;;;;;;;5096175;28;20487;-87
2023/01/13 08:47:15;;;;;;;0.10;0.10;;;;;;;;;;5096388;28;20040;-87
2023/01/13 08:49:43;;;;;;;2.35;0.20;;;;;;;;;;5095651;28;20052;-87
2023/01/13 08:52:10;;;;;;;2.08;0.85;;;;;;;;;;5096351;28;20048;-87
2023/01/13 08:54:38;;;;;;;0.20;0.20;;;;;;;;;;5096136;28;20117;-87
2023/01/13 08:57:06;;;;;;;0.80;0.13;;;;;;;;;;5096266;28;20504;-87
2023/01/13 08:59:33;;;;;;;0.35;0.10;;;;;;;;;;5095957;28;20515;-87
2023/01/13 09:02:00;;;;;;;2.53;0.22;;;;;;;;;;5095894;28;20117;-87
2023/01/13 09:04:28;;;;;;;0.17;0.05;;;;;;;;;;5095868;28;20044;-87
2023/01/13 09:06:55;;;;;;;0.13;0.10;;;;;;;;;;5095558;28;20050;-87
2023/01/13 09:09:24;;;;;;;5.47;0.10;;;;;;;;;;5095833;28;20059;-85
2023/01/13 09:14:38;;;;;;;0.10;0.10;;;;;;;;;;5096909;28;20051;-87
2023/01/13 09:17:09;;;;;;;0.45;0.15;;;;;;;;;;5095135;28;20059;-87
2023/01/13 09:19:36;;;;;;;0.32;0.20;;;;;;;;;;5095555;28;20043;-87
2023/01/13 09:22:03;;;;;;;0.20;0.10;;;;;;;;;;5095344;28;20044;-87
2023/01/13 09:24:31;;;;;;;0.20;0.20;;;;;;;;;;5095325;28;20400;-88
2023/01/13 09:26:58;;;;;;;1.08;1.05;;;;;;;;;;5095599;28;20044;-87
2023/01/13 09:29:25;;;;;;;0.57;0.40;;;;;;;;;;5095528;28;20083;-86
2023/01/13 09:31:52;;;;;;;0.40;0.40;;;;;;;;;;5095653;28;20105;-87
2023/01/13 09:37:06;;;;;;;3.00;0.35;;;;;;;;;;5096442;28;20417;-87
2023/01/13 09:39:34;;;;;;;3.70;0.75;;;;;;;;;;5095274;28;20131;-86
2023/01/13 09:44:54;;;;;;;0.90;0.10;;;;;;;;;;5096194;28;20044;-86
2023/01/13 09:47:31;;;;;;;1.42;0.20;;;;;;;;;;5095376;28;20070;-86
2023/01/13 09:50:17;;;;;;;0.65;0.20;;;;;;;;;;5095252;28;20048;-87
2023/01/13 09:52:45;;;;;;;0.57;0.20;;;;;;;;;;5092714;28;20466;-87
2023/01/13 09:55:45;;;;;;;0.43;0.20;;;;;;;;;;5080526;28;20075;-87
2023/01/13 09:58:15;;;;;;;0.30;0.08;;;;;;;;;;5033880;28;20045;-87
2023/01/13 10:00:49;;;;;;;0.20;0.20;;;;;;;;;;5094605;28;20113;-88
2023/01/13 10:03:24;;;;;;;1.75;0.30;;;;;;;;;;5095678;28;20081;-87
2023/01/13 10:06:05;;;;;;;1.20;0.30;;;;;;;;;;5094725;28;20071;-87
2023/01/13 10:08:40;;;;;;;1.08;0.10;;;;;;;;;;5094653;28;20060;-87
2023/01/13 10:14:11;;;;;;;0.30;0.10;;;;;;;;;;5095806;28;20543;-87
2023/01/13 10:17:00;;;;;;;1.27;0.45;;;;;;;;;;5094383;28;20052;-87
2023/01/13 10:19:33;;;;;;;0.75;0.10;;;;;;;;;;5094753;28;20062;-87
2023/01/13 10:22:19;;;;;;;1.40;0.50;;;;;;;;;;5094496;28;20127;-86
2023/01/13 10:25:19;;;;;;;1.95;0.20;;;;;;;;;;5094339;28;20048;-87
2023/01/13 10:27:48;;;;;;;0.22;0.15;;;;;;;;;;5094769;28;20048;-87
2023/01/13 10:30:21;;;;;;;1.58;0.20;;;;;;;;;;5094542;28;20449;-86
2023/01/13 10:32:56;;;;;;;0.20;0.13;;;;;;;;;;5094377;28;20077;-87
2023/01/13 10:35:42;;;;;;;1.70;0.30;;;;;;;;;;5094157;28;20117;-87
2023/01/13 10:38:15;;;;;;;0.40;0.20;;;;;;;;;;5094260;28;20047;-87
2023/01/13 10:40:50;;;;;;;1.80;0.95;;;;;;;;;;5094154;28;20052;-87
2023/01/13 10:43:17;;;;;;;1.17;0.60;;;;;;;;;;5094284;28;20043;-87
2023/01/13 10:45:59;;;;;;;0.50;0.40;;;;;;;;;;5093846;28;20058;-87
2023/01/13 10:48:38;;;;;;;1.20;0.50;;;;;;;;;;5094025;28;20054;-87
2023/01/13 10:51:24;;;;;;;0.77;0.40;;;;;;;;;;5094048;28;20048;-87
2023/01/13 10:53:55;;;;;;;2.47;0.30;;;;;;;;;;5093092;28;20062;-87
2023/01/13 10:56:24;;;;;;;1.45;0.30;;;;;;;;;;5093639;28;20052;-87
2023/01/13 10:58:51;;;;;;;2.55;0.50;;;;;;;;;;5093895;28;20412;-86
2023/01/13 11:01:20;;;;;;;3.38;0.68;;;;;;;;;;5093987;28;20048;-87
2023/01/13 11:03:48;;;;;;;4.05;0.77;;;;;;;;;;5093932;28;20048;-86
2023/01/13 11:06:26;;;;;;;1.33;0.30;;;;;;;;;;5093465;28;20062;-87
2023/01/13 11:08:54;;;;;;;1.80;0.40;;;;;;;;;;5093601;28;20222;-86
2023/01/13 11:11:38;;;;;;;1.08;0.38;;;;;;;;;;5093596;28;20051;-87
2023/01/13 11:14:40;;;;;;;0.32;0.20;;;;;;;;;;5093531;28;20054;-87
2023/01/13 11:17:15;;;;;;;1.70;0.30;;;;;;;;;;5089665;28;20056;-87
2023/01/13 11:19:57;;;;;;;3.25;0.20;;;;;;;;;;5093272;28;20131;-87
2023/01/13 11:22:29;;;;;;;0.75;0.30;;;;;;;;;;5093469;28;20052;-87
2023/01/13 11:25:00;;;;;;;0.93;0.30;;;;;;;;;;5093420;28;20046;-86
2023/01/13 11:27:43;;;;;;;0.93;0.30;;;;;;;;;;5093439;28;20115;-86
2023/01/13 11:30:17;;;;;;;1.20;0.30;;;;;;;;;;5093394;28;20083;-87
2023/01/13 11:32:55;;;;;;;0.90;0.50;;;;;;;;;;5093520;28;20504;-87
2023/01/13 11:35:23;;;;;;;1.20;0.50;;;;;;;;;;5099714;28;20067;-87
2023/01/13 11:37:53;;;;;;;0.70;0.32;;;;;;;;;;5093387;28;20113;-87
2023/01/13 11:40:24;;;;;;;2.65;0.20;;;;;;;;;;5093122;28;20055;-87
2023/01/13 11:42:59;;;;;;;0.45;0.25;;;;;;;;;;5093190;28;20051;-88
2023/01/13 11:45:47;;;;;;;2.38;0.30;;;;;;;;;;5092911;28;20047;-86
2023/01/13 11:48:15;;;;;;;1.55;0.40;;;;;;;;;;5093174;28;20083;-86
2023/01/13 11:50:52;;;;;;;0.93;0.40;;;;;;;;;;5092934;28;20052;-87
2023/01/13 11:53:33;;;;;;;1.13;0.38;;;;;;;;;;5092999;28;20059;-86
2023/01/13 11:56:06;;;;;;;1.45;0.35;;;;;;;;;;5092821;28;20167;-87
2023/01/13 11:58:34;;;;;;;2.28;0.60;;;;;;;;;;5092971;28;20080;-86
2023/01/13 12:01:19;;;;;;;0.28;0.20;;;;;;;;;;5092816;28;20139;-87
2023/01/13 12:04:05;;;;;;;1.17;0.38;;;;;;;;;;5092996;28;20048;-86
2023/01/13 12:06:37;;;;;;;0.80;0.40;;;;;;;;;;5092270;28;20051;-87
2023/01/13 12:09:23;;;;;;;1.13;0.30;;;;;;;;;;5092733;28;20123;-85
2023/01/13 12:12:22;;;;;;;0.80;0.30;;;;;;;;;;5092844;28;20052;-87
2023/01/13 12:14:52;;;;;;;0.85;0.30;;;;;;;;;;5092636;28;20518;-86
2023/01/13 12:17:29;;;;;;;0.52;0.30;;;;;;;;;;5092464;28;20135;-89
2023/01/13 12:19:56;;;;;;;1.95;0.47;;;;;;;;;;5092673;28;20056;-86
2023/01/13 12:22:28;;;;;;;2.60;0.30;;;;;;;;;;5092423;28;20046;-87
2023/01/13 12:25:20;;;;;;;0.95;0.20;;;;;;;;;;5092406;28;20047;-86
2023/01/13 12:27:58;;;;;;;0.85;0.47;;;;;;;;;;5092406;28;20060;-86
2023/01/13 12:30:28;;;;;;;1.80;0.40;;;;;;;;;;5092024;28;20488;-85
2023/01/13 12:32:58;;;;;;;4.45;1.30;;;;;;;;;;5092497;28;20139;-86
2023/01/13 12:35:36;;;;;;;1.38;0.35;;;;;;;;;;5092227;28;20469;-85
2023/01/13 12:38:10;;;;;;;2.78;1.80;;;;;;;;;;5092357;28;20032;-85
2023/01/13 12:40:47;;;;;;;2.15;0.80;;;;;;;;;;5092243;28;20176;-87
2023/01/13 12:46:25;;;;;;;1.75;0.47;;;;;;;;;;5092961;28;20054;-86
2023/01/13 12:48:58;;;;;;;1.02;0.40;;;;;;;;;;5092225;28;20519;-86
2023/01/13 12:51:27;;;;;;;0.52;0.28;;;;;;;;;;5092189;28;20514;-88
2023/01/13 12:53:55;;;;;;;0.70;0.40;;;;;;;;;;5098269;28;20108;-86
2023/01/13 12:56:32;;;;;;;1.48;0.60;;;;;;;;;;5092030;28;20109;-86
2023/01/13 12:59:17;;;;;;;3.80;0.70;;;;;;;;;;5092247;28;20389;-86
2023/01/13 13:01:46;;;;;;;0.95;0.40;;;;;;;;;;5091980;28;20500;-86
2023/01/13 13:04:17;;;;;;;1.25;0.50;;;;;;;;;;5092293;28;20058;-87
2023/01/13 13:06:49;;;;;;;3.03;0.95;;;;;;;;;;5091946;28;20495;-87
2023/01/13 13:09:27;;;;;;;0.98;0.40;;;;;;;;;;5092036;28;20048;-86
2023/01/13 13:14:37;;;;;;;0.85;0.50;;;;;;;;;;5093075;28;20235;-86
2023/01/13 13:17:24;;;;;;;0.95;0.47;;;;;;;;;;5092748;28;20068;-87
2023/01/13 13:19:51;;;;;;;7.90;1.00;;;;;;;;;;5096601;28;20054;-86
2023/01/13 13:22:20;;;;;;;3.03;0.57;;;;;;;;;;5095537;28;20048;-86
2023/01/13 13:24:50;;;;;;;4.13;0.70;;;;;;;;;;5095660;28;20087;-85
2023/01/13 13:27:19;;;;;;;1.65;0.50;;;;;;;;;;5095097;28;20047;-86
2023/01/13 13:29:50;;;;;;;2.70;0.52;;;;;;;;;;5095480;28;20419;-85
2023/01/13 13:32:21;;;;;;;1.48;0.30;;;;;;;;;;5095679;28;20052;-86
2023/01/13 13:34:48;;;;;;;2.50;0.90;;;;;;;;;;5095440;28;20059;-86
2023/01/13 13:37:25;;;;;;;4.70;0.63;;;;;;;;;;5095335;28;20150;-86
2023/01/13 13:48:22;;;;;;;1.48;0.57;;;;;;;;;;5096147;28;20054;-86
2023/01/13 13:50:54;;;;;;;5.53;0.60;;;;;;;;;;5095138;28;20054;-87
2023/01/13 13:53:21;;;;;;;4.60;0.95;;;;;;;;;;5095010;28;20048;-85
2023/01/13 13:55:54;;;;;;;3.20;0.65;;;;;;;;;;5094837;28;20132;-86
2023/01/13 13:58:24;;;;;;;3.75;0.60;;;;;;;;;;5094996;28;20111;-86
2023/01/13 14:00:52;;;;;;;3.90;1.00;;;;;;;;;;5094905;28;20048;-86
2023/01/13 14:03:29;;;;;;;1.42;0.63;;;;;;;;;;5094841;28;20055;-86
2023/01/13 14:06:02;;;;;;;1.88;0.70;;;;;;;;;;5094573;28;20131;-86
2023/01/13 14:08:30;;;;;;;3.30;0.90;;;;;;;;;;5094676;28;20059;-86
2023/01/13 14:10:58;;;;;;;1.88;0.98;;;;;;;;;;5094771;28;20083;-86
2023/01/13 14:13:26;;;;;;;2.75;0.70;;;;;;;;;;5095638;28;20048;-85
2023/01/13 14:15:58;;;;;;;2.20;0.63;;;;;;;;;;5094407;28;20052;-86
2023/01/13 14:18:26;;;;;;;1.33;0.77;;;;;;;;;;5094601;28;20051;-86
2023/01/13 14:20:53;;;;;;;2.50;0.70;;;;;;;;;;5094711;28;20502;-86
2023/01/13 14:23:23;;;;;;;5.57;0.80;;;;;;;;;;5094486;28;20056;-85
2023/01/13 14:25:51;;;;;;;3.28;0.73;;;;;;;;;;5093908;28;20127;-86
2023/01/13 14:28:18;;;;;;;3.83;0.88;;;;;;;;;;5094095;28;20048;-86
2023/01/13 14:30:45;;;;;;;0.95;0.57;;;;;;;;;;5094510;28;20484;-85
2023/01/13 14:33:17;;;;;;;0.93;0.60;;;;;;;;;;5094672;28;20052;-85
2023/01/13 14:36:23;;;;;;;3.38;1.17;;;;;;;;;;5094799;28;20143;-85
2023/01/13 14:39:11;;;;;;;6.07;0.70;;;;;;;;;;5019818;28;20497;-89
2023/01/13 14:41:40;;;;;;;4.05;0.90;;;;;;;;;;5025487;28;20053;-86
2023/01/13 14:44:13;;;;;;;5.90;0.50;;;;;;;;;;5063012;28;20131;-85
2023/01/13 14:46:41;;;;;;;4.65;1.23;;;;;;;;;;5091986;28;20129;-87
2023/01/13 14:49:27;;;;;;;5.32;0.80;;;;;;;;;;5092394;28;20135;-86
2023/01/13 14:52:02;;;;;;;5.25;0.52;;;;;;;;;;5092301;28;20534;-86
2023/01/13 14:54:47;;;;;;;6.75;0.88;;;;;;;;;;5092099;28;20179;-85
2023/01/13 14:57:31;;;;;;;3.85;1.33;;;;;;;;;;5092421;28;20485;-86
2023/01/13 15:00:13;;;;;;;6.20;0.93;;;;;;;;;;5093783;28;20547;-86
2023/01/13 15:03:00;;;;;;;4.10;0.80;;;;;;;;;;5093624;28;20464;-86
2023/01/13 15:05:27;;;;;;;;;;;;;;;;;;5094045;28;20485;-86
2023/01/13 15:08:08;;;;;;;5.25;0.90;;;;;;;;;;5093737;28;19942;-86
2023/01/13 15:10:38;;;;;;;2.38;0.80;;;;;;;;;;5093761;28;20138;-86
2023/01/13 15:13:06;;;;;;;8.63;1.35;;;;;;;;;;5093639;28;20051;-86
2023/01/13 15:15:37;;;;;;;4.80;1.13;;;;;;;;;;5093381;28;20059;-86
2023/01/13 15:18:16;;;;;;;6.18;2.05;;;;;;;;;;5093493;28;20051;-86
2023/01/13 15:20:44;;;;;;;7.05;1.00;;;;;;;;;;5093496;28;20067;-86
2023/01/13 15:23:11;;;;;;;9.30;1.33;;;;;;;;;;5093453;28;20055;-86
2023/01/13 15:25:39;;;;;;;15.60;2.80;;;;;;;;;;5093383;28;20051;-86
2023/01/13 15:28:07;;;;;;;5.95;1.40;;;;;;;;;;5093469;28;20048;-86
2023/01/13 15:30:35;;;;;;;3.13;1.17;;;;;;;;;;5093335;28;20048;-87
2023/01/13 15:33:02;;;;;;;6.13;1.30;;;;;;;;;;5093406;28;20062;-86
2023/01/13 15:35:29;;;;;;;5.63;1.40;;;;;;;;;;5093239;28;20052;-86
2023/01/13 15:37:57;;;;;;;5.05;1.10;;;;;;;;;;5093210;28;20059;-86
2023/01/13 15:40:25;;;;;;;5.10;2.03;;;;;;;;;;5092836;28;20048;-86
2023/01/13 15:48:26;;;;;;;7.63;3.42;;;;;;;;;;5094041;28;20059;-87
2023/01/13 15:50:53;;;;;;;9.25;3.17;;;;;;;;;;5093153;28;20407;-86
2023/01/13 15:53:21;;;;;;;4.75;1.58;;;;;;;;;;5092859;28;20056;-86
2023/01/13 15:55:50;;;;;;;9.77;2.30;;;;;;;;;;5093016;28;20048;-86
2023/01/13 15:58:18;;;;;;;17.98;1.92;;;;;;;;;;5092933;28;20079;-86
2023/01/13 16:00:46;;;;;;;5.70;1.90;;;;;;;;;;5093784;28;20131;-86
2023/01/13 16:03:13;;;;;;;4.28;1.20;;;;;;;;;;5093001;28;20472;-87
2023/01/13 16:05:41;;;;;;;3.43;1.10;;;;;;;;;;5091860;28;20097;-87
2023/01/13 16:08:18;;;;;;;12.93;1.63;;;;;;;;;;5092846;28;20275;-87